Oujda, Morocco
Current Conditions -  °F | °C
As of 4:00 AM on Tuesday 23 Dec 2014 (Local Time) from GMFO Reporting Station
Few Clouds Few Clouds  
Wind Chill: 50°   Ceiling: Unl
Heat Index: 50°   Visibility: 6mi
Dew Point: 41°   Wind: 13mph
Humidity: 71%   Direction: 230°SW
Pressure: 30.36"   Gusts: NA
Location:  34.69°N, 1.91°W
Report Text: GMFO 230300Z 23011KT 9999 FEW016 10/05 Q1028 NOSIG
Loading
Personal Weather Stations






























Interactive Weather Map New forecast layout! Learn more

10-Day Weather Forecast

Advertisements
Track Severe Weather on mobile